sensor_id;sensor_type;location;lat;lon;timestamp;temperature;humidity
67603;DHT22;54417;47.454;18.918;2023-12-20T00:01:39;-0.17;99.10
67603;DHT22;54417;47.454;18.918;2023-12-20T00:06:49;-0.44;99.51
67603;DHT22;54417;47.454;18.918;2023-12-20T00:11:58;-0.44;99.70
67603;DHT22;54417;47.454;18.918;2023-12-20T00:17:07;-0.37;99.37
67603;DHT22;54417;47.454;18.918;2023-12-20T00:22:17;-0.41;99.75
67603;DHT22;54417;47.454;18.918;2023-12-20T00:27:26;-0.32;99.36
67603;DHT22;54417;47.454;18.918;2023-12-20T00:32:35;-0.52;99.24
67603;DHT22;54417;47.454;18.918;2023-12-20T00:37:45;-0.38;99.23
67603;DHT22;54417;47.454;18.918;2023-12-20T00:42:54;-0.45;99.44
67603;DHT22;54417;47.454;18.918;2023-12-20T00:48:03;-0.44;99.58
67603;DHT22;54417;47.454;18.918;2023-12-20T00:53:13;-0.38;99.25
67603;DHT22;54417;47.454;18.918;2023-12-20T00:58:22;-0.32;98.66
67603;DHT22;54417;47.454;18.918;2023-12-20T01:03:31;-0.25;98.88
67603;DHT22;54417;47.454;18.918;2023-12-20T01:08:37;-0.25;98.91
67603;DHT22;54417;47.454;18.918;2023-12-20T01:13:46;-0.24;98.88
67603;DHT22;54417;47.454;18.918;2023-12-20T01:18:54;-0.25;98.72
67603;DHT22;54417;47.454;18.918;2023-12-20T01:24:05;-0.25;98.83
67603;DHT22;54417;47.454;18.918;2023-12-20T01:29:13;-0.15;98.58
67603;DHT22;54417;47.454;18.918;2023-12-20T01:34:24;-0.20;98.30
67603;DHT22;54417;47.454;18.918;2023-12-20T01:39:34;-0.20;98.42
67603;DHT22;54417;47.454;18.918;2023-12-20T01:44:43;-0.27;98.85
67603;DHT22;54417;47.454;18.918;2023-12-20T01:49:52;-0.32;99.13
67603;DHT22;54417;47.454;18.918;2023-12-20T01:55:02;-0.29;99.15
67603;DHT22;54417;47.454;18.918;2023-12-20T02:00:19;-0.32;99.38
67603;DHT22;54417;47.454;18.918;2023-12-20T02:05:31;-0.37;99.24
67603;DHT22;54417;47.454;18.918;2023-12-20T02:10:36;-0.34;99.14
67603;DHT22;54417;47.454;18.918;2023-12-20T02:15:45;-0.32;98.89
67603;DHT22;54417;47.454;18.918;2023-12-20T02:20:54;-0.34;98.95
67603;DHT22;54417;47.454;18.918;2023-12-20T02:26:05;-0.29;98.46
67603;DHT22;54417;47.454;18.918;2023-12-20T02:31:14;-0.38;98.77
67603;DHT22;54417;47.454;18.918;2023-12-20T02:36:23;-0.34;98.74
67603;DHT22;54417;47.454;18.918;2023-12-20T02:41:33;-0.32;98.59
67603;DHT22;54417;47.454;18.918;2023-12-20T02:46:42;-0.34;98.63
67603;DHT22;54417;47.454;18.918;2023-12-20T02:51:51;-0.51;98.65
67603;DHT22;54417;47.454;18.918;2023-12-20T02:57:01;-0.41;98.42
67603;DHT22;54417;47.454;18.918;2023-12-20T03:02:10;-0.45;98.75
67603;DHT22;54417;47.454;18.918;2023-12-20T03:07:19;-0.39;98.62
67603;DHT22;54417;47.454;18.918;2023-12-20T03:12:29;-0.22;98.29
67603;DHT22;54417;47.454;18.918;2023-12-20T03:17:38;-0.38;98.40
67603;DHT22;54417;47.454;18.918;2023-12-20T03:22:47;-0.38;98.55
67603;DHT22;54417;47.454;18.918;2023-12-20T03:27:52;-0.38;98.52
67603;DHT22;54417;47.454;18.918;2023-12-20T03:33:01;-0.49;98.51
67603;DHT22;54417;47.454;18.918;2023-12-20T03:38:05;-0.59;98.81
67603;DHT22;54417;47.454;18.918;2023-12-20T03:43:15;-0.79;99.39
67603;DHT22;54417;47.454;18.918;2023-12-20T03:48:24;-0.64;99.11
67603;DHT22;54417;47.454;18.918;2023-12-20T03:53:32;-0.58;99.24
67603;DHT22;54417;47.454;18.918;2023-12-20T03:58:42;-0.39;98.91
67603;DHT22;54417;47.454;18.918;2023-12-20T04:03:51;-0.42;98.90
67603;DHT22;54417;47.454;18.918;2023-12-20T04:09:00;-0.29;98.47
67603;DHT22;54417;47.454;18.918;2023-12-20T04:14:10;-0.38;98.39
67603;DHT22;54417;47.454;18.918;2023-12-20T04:19:14;-0.41;98.49
67603;DHT22;54417;47.454;18.918;2023-12-20T04:24:23;-0.42;98.47
67603;DHT22;54417;47.454;18.918;2023-12-20T04:29:33;-0.49;98.61
67603;DHT22;54417;47.454;18.918;2023-12-20T04:34:42;-0.68;98.64
67603;DHT22;54417;47.454;18.918;2023-12-20T04:39:46;-0.93;99.34
67603;DHT22;54417;47.454;18.918;2023-12-20T04:44:56;-0.75;99.49
67603;DHT22;54417;47.454;18.918;2023-12-20T04:50:00;-0.58;99.26
67603;DHT22;54417;47.454;18.918;2023-12-20T04:55:09;-0.73;99.25
67603;DHT22;54417;47.454;18.918;2023-12-20T05:00:20;-0.75;99.39
67603;DHT22;54417;47.454;18.918;2023-12-20T05:05:28;-0.86;99.15
67603;DHT22;54417;47.454;18.918;2023-12-20T05:10:32;-0.70;99.38
67603;DHT22;54417;47.454;18.918;2023-12-20T05:15:38;-0.64;99.16
67603;DHT22;54417;47.454;18.918;2023-12-20T05:20:42;-0.66;98.94
67603;DHT22;54417;47.454;18.918;2023-12-20T05:25:51;-0.59;98.73
67603;DHT22;54417;47.454;18.918;2023-12-20T05:31:01;-0.75;98.63
67603;DHT22;54417;47.454;18.918;2023-12-20T05:36:10;-0.95;99.12
67603;DHT22;54417;47.454;18.918;2023-12-20T05:41:21;-0.92;99.24
67603;DHT22;54417;47.454;18.918;2023-12-20T05:46:31;-0.72;99.18
67603;DHT22;54417;47.454;18.918;2023-12-20T05:51:40;-0.61;98.91
67603;DHT22;54417;47.454;18.918;2023-12-20T05:56:49;-0.55;98.75
67603;DHT22;54417;47.454;18.918;2023-12-20T06:01:54;-0.55;98.53
67603;DHT22;54417;47.454;18.918;2023-12-20T06:07:03;-0.56;98.30
67603;DHT22;54417;47.454;18.918;2023-12-20T06:12:37;-0.51;98.28
67603;DHT22;54417;47.454;18.918;2023-12-20T06:17:47;-0.55;97.94
67603;DHT22;54417;47.454;18.918;2023-12-20T06:22:52;-0.70;97.79
67603;DHT22;54417;47.454;18.918;2023-12-20T06:28:00;-0.73;97.70
67603;DHT22;54417;47.454;18.918;2023-12-20T06:33:06;-0.75;97.60
67603;DHT22;54417;47.454;18.918;2023-12-20T06:38:18;-1.10;97.91
67603;DHT22;54417;47.454;18.918;2023-12-20T06:43:27;-1.28;98.99
67603;DHT22;54417;47.454;18.918;2023-12-20T06:48:52;-1.28;99.48
67603;DHT22;54417;47.454;18.918;2023-12-20T06:54:00;-1.16;99.12
67603;DHT22;54417;47.454;18.918;2023-12-20T06:59:10;-1.34;99.29
67603;DHT22;54417;47.454;18.918;2023-12-20T07:04:20;-1.64;99.65
67603;DHT22;54417;47.454;18.918;2023-12-20T07:09:29;-1.55;99.71
67603;DHT22;54417;47.454;18.918;2023-12-20T07:14:33;-1.52;99.65
67603;DHT22;54417;47.454;18.918;2023-12-20T07:19:44;-1.50;99.69
67603;DHT22;54417;47.454;18.918;2023-12-20T07:24:53;-1.44;99.61
67603;DHT22;54417;47.454;18.918;2023-12-20T07:29:57;-1.33;98.84
67603;DHT22;54417;47.454;18.918;2023-12-20T07:35:08;-1.37;99.00
67603;DHT22;54417;47.454;18.918;2023-12-20T07:40:17;-1.33;98.29
67603;DHT22;54417;47.454;18.918;2023-12-20T07:45:20;-1.37;98.09
67603;DHT22;54417;47.454;18.918;2023-12-20T07:50:25;-1.38;97.59
67603;DHT22;54417;47.454;18.918;2023-12-20T07:55:35;-1.27;97.39
67603;DHT22;54417;47.454;18.918;2023-12-20T08:00:44;-1.06;97.36
67603;DHT22;54417;47.454;18.918;2023-12-20T08:05:54;-0.87;96.72
67603;DHT22;54417;47.454;18.918;2023-12-20T08:11:04;-1.11;96.56
67603;DHT22;54417;47.454;18.918;2023-12-20T08:16:13;-0.99;96.31
67603;DHT22;54417;47.454;18.918;2023-12-20T08:21:24;-0.93;96.38
67603;DHT22;54417;47.454;18.918;2023-12-20T08:26:33;-1.11;96.35
67603;DHT22;54417;47.454;18.918;2023-12-20T08:31:42;-1.04;96.32
67603;DHT22;54417;47.454;18.918;2023-12-20T08:36:55;-0.96;96.48
67603;DHT22;54417;47.454;18.918;2023-12-20T08:42:04;-0.80;96.33
67603;DHT22;54417;47.454;18.918;2023-12-20T08:47:13;-0.82;96.30
67603;DHT22;54417;47.454;18.918;2023-12-20T08:52:25;-0.79;96.50
67603;DHT22;54417;47.454;18.918;2023-12-20T08:57:34;-0.62;96.75
67603;DHT22;54417;47.454;18.918;2023-12-20T09:02:43;-0.59;97.69
67603;DHT22;54417;47.454;18.918;2023-12-20T09:07:48;-0.41;97.88
67603;DHT22;54417;47.454;18.918;2023-12-20T09:12:53;-0.18;98.09
67603;DHT22;54417;47.454;18.918;2023-12-20T09:18:04;0.06;98.27
67603;DHT22;54417;47.454;18.918;2023-12-20T09:23:10;0.22;98.20
67603;DHT22;54417;47.454;18.918;2023-12-20T09:28:19;0.51;97.91
67603;DHT22;54417;47.454;18.918;2023-12-20T09:33:28;0.66;97.66
67603;DHT22;54417;47.454;18.918;2023-12-20T09:38:39;0.80;97.19
67603;DHT22;54417;47.454;18.918;2023-12-20T09:43:43;0.95;97.24
67603;DHT22;54417;47.454;18.918;2023-12-20T09:48:53;1.15;97.01
67603;DHT22;54417;47.454;18.918;2023-12-20T09:54:04;1.37;97.00
67603;DHT22;54417;47.454;18.918;2023-12-20T09:59:13;1.62;96.41
67603;DHT22;54417;47.454;18.918;2023-12-20T10:04:22;1.72;96.26
67603;DHT22;54417;47.454;18.918;2023-12-20T10:09:38;1.94;95.15
67603;DHT22;54417;47.454;18.918;2023-12-20T10:14:42;1.99;95.02
67603;DHT22;54417;47.454;18.918;2023-12-20T10:19:46;1.98;94.29
67603;DHT22;54417;47.454;18.918;2023-12-20T10:24:57;1.92;93.94
67603;DHT22;54417;47.454;18.918;2023-12-20T10:30:08;1.96;93.77
67603;DHT22;54417;47.454;18.918;2023-12-20T10:35:17;2.02;93.70
67603;DHT22;54417;47.454;18.918;2023-12-20T10:40:30;2.12;93.36
67603;DHT22;54417;47.454;18.918;2023-12-20T10:45:41;2.10;92.53
67603;DHT22;54417;47.454;18.918;2023-12-20T10:50:50;2.20;92.44
67603;DHT22;54417;47.454;18.918;2023-12-20T10:56:02;2.36;92.99
67603;DHT22;54417;47.454;18.918;2023-12-20T11:01:08;2.51;92.97
67603;DHT22;54417;47.454;18.918;2023-12-20T11:06:26;2.68;92.67
67603;DHT22;54417;47.454;18.918;2023-12-20T11:11:38;2.95;91.89
67603;DHT22;54417;47.454;18.918;2023-12-20T11:16:48;3.04;91.90
67603;DHT22;54417;47.454;18.918;2023-12-20T11:21:57;3.20;91.77
67603;DHT22;54417;47.454;18.918;2023-12-20T11:27:02;3.34;91.70
67603;DHT22;54417;47.454;18.918;2023-12-20T11:32:29;3.50;91.55
67603;DHT22;54417;47.454;18.918;2023-12-20T11:37:35;3.71;90.87
67603;DHT22;54417;47.454;18.918;2023-12-20T11:42:42;3.91;90.76
67603;DHT22;54417;47.454;18.918;2023-12-20T11:47:51;4.21;90.88
67603;DHT22;54417;47.454;18.918;2023-12-20T11:52:56;4.90;90.04
67603;DHT22;54417;47.454;18.918;2023-12-20T11:58:07;5.48;88.42
67603;DHT22;54417;47.454;18.918;2023-12-20T12:03:17;5.94;87.22
67603;DHT22;54417;47.454;18.918;2023-12-20T12:08:28;6.32;86.68
67603;DHT22;54417;47.454;18.918;2023-12-20T12:13:38;6.56;85.35
67603;DHT22;54417;47.454;18.918;2023-12-20T12:18:55;6.65;84.63
67603;DHT22;54417;47.454;18.918;2023-12-20T12:24:07;6.73;84.50
67603;DHT22;54417;47.454;18.918;2023-12-20T12:29:18;6.61;84.01
67603;DHT22;54417;47.454;18.918;2023-12-20T12:34:21;6.44;83.89
67603;DHT22;54417;47.454;18.918;2023-12-20T12:39:30;6.22;84.28
67603;DHT22;54417;47.454;18.918;2023-12-20T12:44:40;5.94;83.86
67603;DHT22;54417;47.454;18.918;2023-12-20T12:49:44;5.80;84.48
67603;DHT22;54417;47.454;18.918;2023-12-20T12:54:53;5.69;84.48
67603;DHT22;54417;47.454;18.918;2023-12-20T13:00:05;5.52;84.97
67603;DHT22;54417;47.454;18.918;2023-12-20T13:05:15;5.40;85.78
67603;DHT22;54417;47.454;18.918;2023-12-20T13:10:25;5.21;85.68
67603;DHT22;54417;47.454;18.918;2023-12-20T13:15:30;5.18;85.78
67603;DHT22;54417;47.454;18.918;2023-12-20T13:20:34;5.05;85.73
67603;DHT22;54417;47.454;18.918;2023-12-20T13:25:43;4.97;86.26
67603;DHT22;54417;47.454;18.918;2023-12-20T13:30:55;4.81;86.00
67603;DHT22;54417;47.454;18.918;2023-12-20T13:36:00;4.76;86.38
67603;DHT22;54417;47.454;18.918;2023-12-20T13:41:08;4.56;86.90
67603;DHT22;54417;47.454;18.918;2023-12-20T13:46:21;4.33;87.13
67603;DHT22;54417;47.454;18.918;2023-12-20T13:51:26;4.38;87.25
67603;DHT22;54417;47.454;18.918;2023-12-20T13:56:36;4.19;87.93
67603;DHT22;54417;47.454;18.918;2023-12-20T14:02:00;4.08;87.97
67603;DHT22;54417;47.454;18.918;2023-12-20T14:07:06;4.08;88.53
67603;DHT22;54417;47.454;18.918;2023-12-20T14:12:15;3.94;88.51
67603;DHT22;54417;47.454;18.918;2023-12-20T14:17:20;3.98;88.80
67603;DHT22;54417;47.454;18.918;2023-12-20T14:22:29;3.87;88.76
67603;DHT22;54417;47.454;18.918;2023-12-20T14:27:38;3.80;89.22
67603;DHT22;54417;47.454;18.918;2023-12-20T14:32:49;3.70;89.53
67603;DHT22;54417;47.454;18.918;2023-12-20T14:37:53;3.66;89.71
67603;DHT22;54417;47.454;18.918;2023-12-20T14:42:56;3.64;89.97
67603;DHT22;54417;47.454;18.918;2023-12-20T14:48:07;3.59;90.28
67603;DHT22;54417;47.454;18.918;2023-12-20T14:53:16;3.57;90.57
67603;DHT22;54417;47.454;18.918;2023-12-20T14:58:29;3.60;90.28
67603;DHT22;54417;47.454;18.918;2023-12-20T15:03:35;3.52;90.78
67603;DHT22;54417;47.454;18.918;2023-12-20T15:08:44;3.59;90.87
67603;DHT22;54417;47.454;18.918;2023-12-20T15:13:53;3.61;90.65
67603;DHT22;54417;47.454;18.918;2023-12-20T15:19:05;3.61;90.68
67603;DHT22;54417;47.454;18.918;2023-12-20T15:24:09;3.53;90.79
67603;DHT22;54417;47.454;18.918;2023-12-20T15:29:22;3.39;91.04
67603;DHT22;54417;47.454;18.918;2023-12-20T15:34:28;3.30;91.47
67603;DHT22;54417;47.454;18.918;2023-12-20T15:39:37;3.30;91.80
67603;DHT22;54417;47.454;18.918;2023-12-20T15:44:45;3.30;91.87
67603;DHT22;54417;47.454;18.918;2023-12-20T15:49:55;3.25;92.16
67603;DHT22;54417;47.454;18.918;2023-12-20T15:55:05;3.16;92.78
67603;DHT22;54417;47.454;18.918;2023-12-20T16:00:15;3.29;92.71
67603;DHT22;54417;47.454;18.918;2023-12-20T16:05:25;3.22;92.86
67603;DHT22;54417;47.454;18.918;2023-12-20T16:10:34;3.37;93.05
67603;DHT22;54417;47.454;18.918;2023-12-20T16:15:43;3.29;93.07
67603;DHT22;54417;47.454;18.918;2023-12-20T16:20:53;3.36;93.08
67603;DHT22;54417;47.454;18.918;2023-12-20T16:26:04;3.69;92.83
67603;DHT22;54417;47.454;18.918;2023-12-20T16:31:13;3.80;91.98
67603;DHT22;54417;47.454;18.918;2023-12-20T16:36:23;3.85;91.72
67603;DHT22;54417;47.454;18.918;2023-12-20T16:41:27;3.67;91.99
67603;DHT22;54417;47.454;18.918;2023-12-20T16:46:36;3.37;92.17
67603;DHT22;54417;47.454;18.918;2023-12-20T16:51:41;3.13;93.48
67603;DHT22;54417;47.454;18.918;2023-12-20T16:56:50;2.96;93.80
67603;DHT22;54417;47.454;18.918;2023-12-20T17:01:59;3.04;94.06
67603;DHT22;54417;47.454;18.918;2023-12-20T17:07:11;2.94;93.61
67603;DHT22;54417;47.454;18.918;2023-12-20T17:12:19;2.75;94.30
67603;DHT22;54417;47.454;18.918;2023-12-20T17:17:28;2.54;94.99
67603;DHT22;54417;47.454;18.918;2023-12-20T17:22:38;2.36;95.52
67603;DHT22;54417;47.454;18.918;2023-12-20T17:27:42;2.27;96.00
67603;DHT22;54417;47.454;18.918;2023-12-20T17:32:53;2.22;95.95
67603;DHT22;54417;47.454;18.918;2023-12-20T17:38:04;1.91;96.26
67603;DHT22;54417;47.454;18.918;2023-12-20T17:43:07;1.72;97.11
67603;DHT22;54417;47.454;18.918;2023-12-20T17:48:17;1.48;96.98
67603;DHT22;54417;47.454;18.918;2023-12-20T17:53:30;1.16;96.88
67603;DHT22;54417;47.454;18.918;2023-12-20T17:58:39;0.93;96.62
67603;DHT22;54417;47.454;18.918;2023-12-20T18:03:48;0.59;96.89
67603;DHT22;54417;47.454;18.918;2023-12-20T18:08:53;0.38;96.92
67603;DHT22;54417;47.454;18.918;2023-12-20T18:14:03;0.13;97.19
67603;DHT22;54417;47.454;18.918;2023-12-20T18:19:07;-0.07;97.30
67603;DHT22;54417;47.454;18.918;2023-12-20T18:24:17;-0.18;97.25
67603;DHT22;54417;47.454;18.918;2023-12-20T18:29:26;-0.39;97.98
67603;DHT22;54417;47.454;18.918;2023-12-20T18:34:35;-0.55;97.88
67603;DHT22;54417;47.454;18.918;2023-12-20T18:39:45;-0.65;98.70
67603;DHT22;54417;47.454;18.918;2023-12-20T18:44:54;-0.72;98.24
67603;DHT22;54417;47.454;18.918;2023-12-20T18:49:58;-0.86;98.36
67603;DHT22;54417;47.454;18.918;2023-12-20T18:55:11;-0.87;98.85
67603;DHT22;54417;47.454;18.918;2023-12-20T19:00:20;-0.99;98.75
67603;DHT22;54417;47.454;18.918;2023-12-20T19:05:29;-1.04;99.27
67603;DHT22;54417;47.454;18.918;2023-12-20T19:10:39;-1.16;99.18
67603;DHT22;54417;47.454;18.918;2023-12-20T19:15:48;-1.17;99.99
67603;DHT22;54417;47.454;18.918;2023-12-20T19:20:57;-1.10;99.99
67603;DHT22;54417;47.454;18.918;2023-12-20T19:26:03;-0.93;99.99
67603;DHT22;54417;47.454;18.918;2023-12-20T19:31:11;-1.13;99.99
67603;DHT22;54417;47.454;18.918;2023-12-20T19:36:21;-1.23;99.99
67603;DHT22;54417;47.454;18.918;2023-12-20T19:41:31;-1.34;99.99
67603;DHT22;54417;47.454;18.918;2023-12-20T19:46:40;-1.30;99.99
67603;DHT22;54417;47.454;18.918;2023-12-20T19:51:49;-1.37;99.99
67603;DHT22;54417;47.454;18.918;2023-12-20T19:56:59;-1.34;99.99
67603;DHT22;54417;47.454;18.918;2023-12-20T20:02:03;-0.93;99.99
67603;DHT22;54417;47.454;18.918;2023-12-20T20:07:13;-0.72;99.99
67603;DHT22;54417;47.454;18.918;2023-12-20T20:12:23;-0.72;99.99
67603;DHT22;54417;47.454;18.918;2023-12-20T20:17:32;-0.35;99.99
67603;DHT22;54417;47.454;18.918;2023-12-20T20:22:41;-0.27;99.99
67603;DHT22;54417;47.454;18.918;2023-12-20T20:27:51;-0.35;99.99
67603;DHT22;54417;47.454;18.918;2023-12-20T20:33:00;-0.49;99.99
67603;DHT22;54417;47.454;18.918;2023-12-20T20:38:05;-0.61;99.99
67603;DHT22;54417;47.454;18.918;2023-12-20T20:43:15;-0.66;99.99
67603;DHT22;54417;47.454;18.918;2023-12-20T20:48:24;-0.72;99.99
67603;DHT22;54417;47.454;18.918;2023-12-20T20:53:42;-0.92;99.99
67603;DHT22;54417;47.454;18.918;2023-12-20T20:58:52;-1.10;99.99
67603;DHT22;54417;47.454;18.918;2023-12-20T21:04:01;-1.21;99.99
67603;DHT22;54417;47.454;18.918;2023-12-20T21:09:10;-1.18;99.99
67603;DHT22;54417;47.454;18.918;2023-12-20T21:14:15;-1.14;99.99
67603;DHT22;54417;47.454;18.918;2023-12-20T21:19:26;-1.20;99.99
67603;DHT22;54417;47.454;18.918;2023-12-20T21:24:35;-1.37;99.99
67603;DHT22;54417;47.454;18.918;2023-12-20T21:29:40;-1.34;99.99
67603;DHT22;54417;47.454;18.918;2023-12-20T21:34:44;-1.35;99.99
67603;DHT22;54417;47.454;18.918;2023-12-20T21:39:53;-1.45;99.99
67603;DHT22;54417;47.454;18.918;2023-12-20T21:45:04;-1.40;99.99
67603;DHT22;54417;47.454;18.918;2023-12-20T21:50:13;-0.75;99.99
67603;DHT22;54417;47.454;18.918;2023-12-20T21:55:23;-0.06;99.99
67603;DHT22;54417;47.454;18.918;2023-12-20T22:00:33;0.18;99.99
67603;DHT22;54417;47.454;18.918;2023-12-20T22:05:42;0.32;99.99
67603;DHT22;54417;47.454;18.918;2023-12-20T22:10:51;0.27;99.99
67603;DHT22;54417;47.454;18.918;2023-12-20T22:16:01;0.34;99.99
67603;DHT22;54417;47.454;18.918;2023-12-20T22:21:10;0.37;99.99
67603;DHT22;54417;47.454;18.918;2023-12-20T22:26:19;0.28;99.99
67603;DHT22;54417;47.454;18.918;2023-12-20T22:31:29;0.25;99.99
67603;DHT22;54417;47.454;18.918;2023-12-20T22:36:38;0.21;99.99
67603;DHT22;54417;47.454;18.918;2023-12-20T22:41:47;0.21;99.99
67603;DHT22;54417;47.454;18.918;2023-12-20T22:46:57;0.22;99.99
67603;DHT22;54417;47.454;18.918;2023-12-20T22:52:01;0.20;99.99
67603;DHT22;54417;47.454;18.918;2023-12-20T22:57:11;0.24;99.99
67603;DHT22;54417;47.454;18.918;2023-12-20T23:02:21;0.34;99.99
67603;DHT22;54417;47.454;18.918;2023-12-20T23:07:29;0.45;99.99
67603;DHT22;54417;47.454;18.918;2023-12-20T23:12:38;0.54;99.99
67603;DHT22;54417;47.454;18.918;2023-12-20T23:17:49;0.65;99.99
67603;DHT22;54417;47.454;18.918;2023-12-20T23:22:58;0.72;99.99
67603;DHT22;54417;47.454;18.918;2023-12-20T23:28:07;0.76;99.99
67603;DHT22;54417;47.454;18.918;2023-12-20T23:33:17;0.73;99.99
67603;DHT22;54417;47.454;18.918;2023-12-20T23:38:26;0.76;99.99
67603;DHT22;54417;47.454;18.918;2023-12-20T23:43:30;0.66;99.99
67603;DHT22;54417;47.454;18.918;2023-12-20T23:48:40;0.73;99.99
67603;DHT22;54417;47.454;18.918;2023-12-20T23:53:49;0.71;99.99
67603;DHT22;54417;47.454;18.918;2023-12-20T23:58:57;0.61;99.99
